createdAt,value
2017-02-21T00:00:22.756Z,949.69
2017-02-21T00:01:22.742Z,949.67
2017-02-21T00:02:22.730Z,949.58
2017-02-21T00:03:22.716Z,949.63
2017-02-21T00:04:22.705Z,949.59
2017-02-21T00:05:22.691Z,949.59
2017-02-21T00:06:22.678Z,949.6
2017-02-21T00:07:22.667Z,949.61
2017-02-21T00:08:22.653Z,949.67
2017-02-21T00:09:22.641Z,949.63
2017-02-21T00:10:22.630Z,949.62
2017-02-21T00:11:22.616Z,949.6
2017-02-21T00:12:22.603Z,949.67
2017-02-21T00:13:22.591Z,949.63
2017-02-21T00:14:22.578Z,949.6
2017-02-21T00:15:22.565Z,949.58
2017-02-21T00:16:22.552Z,949.63
2017-02-21T00:17:22.539Z,949.58
2017-02-21T00:18:22.529Z,949.58
2017-02-21T00:19:22.515Z,949.6
2017-02-21T00:20:22.502Z,949.55
2017-02-21T00:21:22.489Z,949.52
2017-02-21T00:22:22.479Z,949.52
2017-02-21T00:23:22.464Z,949.5
2017-02-21T00:24:22.454Z,949.47
2017-02-21T00:25:22.440Z,949.49
2017-02-21T00:26:22.425Z,949.47
2017-02-21T00:27:22.415Z,949.39
2017-02-21T00:28:22.400Z,949.39
2017-02-21T00:29:22.391Z,949.37
2017-02-21T00:30:22.376Z,949.41
2017-02-21T00:31:22.364Z,949.4
2017-02-21T00:32:22.352Z,949.35
2017-02-21T00:33:22.338Z,949.38
2017-02-21T00:34:22.326Z,949.36
2017-02-21T00:35:22.314Z,949.3
2017-02-21T00:36:22.301Z,949.3
2017-02-21T00:37:22.289Z,949.33
2017-02-21T00:38:22.276Z,949.26
2017-02-21T00:39:22.264Z,949.3
2017-02-21T00:40:22.250Z,949.21
2017-02-21T00:41:22.238Z,949.23
2017-02-21T00:42:22.225Z,949.26
2017-02-21T00:43:22.213Z,949.15
2017-02-21T00:44:22.201Z,949.21
2017-02-21T00:45:22.188Z,949.15
2017-02-21T00:46:22.176Z,949.18
2017-02-21T00:47:22.163Z,949.21
2017-02-21T00:48:22.150Z,949.16
2017-02-21T00:49:22.138Z,949.19
2017-02-21T00:50:22.124Z,949.16
2017-02-21T00:51:22.113Z,949.23
2017-02-21T00:52:22.100Z,949.17
2017-02-21T00:53:22.087Z,949.23
2017-02-21T00:54:22.075Z,949.21
2017-02-21T00:55:22.061Z,949.24
2017-02-21T00:56:22.049Z,949.25
2017-02-21T00:57:22.037Z,949.14
2017-02-21T00:58:22.026Z,949.25
2017-02-21T00:59:22.012Z,949.2
2017-02-21T01:00:21.999Z,949.18
2017-02-21T01:01:21.988Z,949.25
2017-02-21T01:02:21.973Z,949.25
2017-02-21T01:03:21.961Z,949.22
2017-02-21T01:04:21.952Z,949.17
2017-02-21T01:05:21.935Z,949.24
2017-02-21T01:06:21.924Z,949.17
2017-02-21T01:07:21.912Z,949.16
2017-02-21T01:08:21.898Z,949.11
2017-02-21T01:09:21.886Z,949.09
2017-02-21T01:10:21.872Z,949.02
2017-02-21T01:11:21.860Z,949.02
2017-02-21T01:12:21.848Z,949.07
2017-02-21T01:13:21.835Z,949.07
2017-02-21T01:14:21.822Z,948.97
2017-02-21T01:15:21.811Z,948.96
2017-02-21T01:16:21.798Z,948.95
2017-02-21T01:17:21.784Z,948.98
2017-02-21T01:18:21.772Z,948.92
2017-02-21T01:19:21.758Z,948.98
2017-02-21T01:20:21.748Z,948.95
2017-02-21T01:21:21.733Z,948.98
2017-02-21T01:22:21.721Z,948.97
2017-02-21T01:23:21.710Z,948.96
2017-02-21T01:24:21.697Z,948.95
2017-02-21T01:25:21.683Z,948.89
2017-02-21T01:26:21.672Z,948.86
2017-02-21T01:27:21.659Z,948.99
2017-02-21T01:28:21.646Z,948.87
2017-02-21T01:29:21.633Z,948.81
2017-02-21T01:30:21.622Z,948.89
2017-02-21T01:31:21.609Z,948.92
2017-02-21T01:32:21.597Z,948.94
2017-02-21T01:33:21.582Z,948.81
2017-02-21T01:34:21.571Z,948.81
2017-02-21T01:35:21.559Z,948.82
2017-02-21T01:36:21.544Z,948.88
2017-02-21T01:37:21.533Z,948.84
2017-02-21T01:38:21.522Z,948.76
2017-02-21T01:39:21.509Z,948.83
2017-02-21T01:40:21.495Z,948.83
2017-02-21T01:41:21.486Z,948.87
2017-02-21T01:42:21.471Z,948.86
2017-02-21T01:43:21.458Z,948.77
2017-02-21T01:44:21.446Z,948.76
2017-02-21T01:45:21.433Z,948.76
2017-02-21T01:46:21.420Z,948.8
2017-02-21T01:47:21.408Z,948.86
2017-02-21T01:48:21.395Z,948.78
2017-02-21T01:49:21.383Z,948.79
2017-02-21T01:50:21.371Z,948.82
2017-02-21T01:51:21.357Z,948.83
2017-02-21T01:52:21.346Z,948.77
2017-02-21T01:53:21.332Z,948.75
2017-02-21T01:54:21.320Z,948.74
2017-02-21T01:55:21.307Z,948.78
2017-02-21T01:56:21.297Z,948.72
2017-02-21T01:57:21.283Z,948.69
2017-02-21T01:58:21.271Z,948.7
2017-02-21T01:59:21.258Z,948.7
2017-02-21T02:00:21.247Z,948.72
2017-02-21T02:01:21.233Z,948.77
2017-02-21T02:02:21.222Z,948.74
2017-02-21T02:03:21.208Z,948.83
2017-02-21T02:04:21.197Z,948.75
2017-02-21T02:05:21.186Z,948.75
2017-02-21T02:06:21.172Z,948.76
2017-02-21T02:07:21.159Z,948.73
2017-02-21T02:08:21.147Z,948.69
2017-02-21T02:09:21.135Z,948.69
2017-02-21T02:10:21.122Z,948.68
2017-02-21T02:11:21.110Z,948.68
2017-02-21T02:12:21.097Z,948.71
2017-02-21T02:13:21.085Z,948.66
2017-02-21T02:14:21.073Z,948.67
2017-02-21T02:15:21.061Z,948.61
2017-02-21T02:16:21.049Z,948.63
2017-02-21T02:17:21.036Z,948.66
2017-02-21T02:18:21.024Z,948.54
2017-02-21T02:19:21.011Z,948.59
2017-02-21T02:20:20.999Z,948.51
2017-02-21T02:21:20.987Z,948.54
2017-02-21T02:22:20.974Z,948.45
2017-02-21T02:23:20.962Z,948.46
2017-02-21T02:24:20.949Z,948.46
2017-02-21T02:25:20.937Z,948.45
2017-02-21T02:26:20.926Z,948.44
2017-02-21T02:27:20.912Z,948.44
2017-02-21T02:28:20.899Z,948.47
2017-02-21T02:29:20.888Z,948.39
2017-02-21T02:30:20.875Z,948.42
2017-02-21T02:31:20.863Z,948.42
2017-02-21T02:32:20.851Z,948.38
2017-02-21T02:33:20.839Z,948.35
2017-02-21T02:34:20.826Z,948.38
2017-02-21T02:35:20.814Z,948.37
2017-02-21T02:36:20.802Z,948.35
2017-02-21T02:37:20.790Z,948.32
2017-02-21T02:38:20.777Z,948.3
2017-02-21T02:39:20.764Z,948.42
2017-02-21T02:40:20.753Z,948.37
2017-02-21T02:41:20.739Z,948.35
2017-02-21T02:42:20.729Z,948.34
2017-02-21T02:43:20.716Z,948.3
2017-02-21T02:44:20.705Z,948.3
2017-02-21T02:45:20.692Z,948.28
2017-02-21T02:46:20.679Z,948.24
2017-02-21T02:47:20.667Z,948.24
2017-02-21T02:48:20.656Z,948.28
2017-02-21T02:49:20.646Z,948.21
2017-02-21T02:50:20.632Z,948.25
2017-02-21T02:51:20.618Z,948.2
2017-02-21T02:52:20.607Z,948.27
2017-02-21T02:53:20.594Z,948.26
2017-02-21T02:54:20.582Z,948.34
2017-02-21T02:55:20.570Z,948.32
2017-02-21T02:56:20.556Z,948.34
2017-02-21T02:57:20.545Z,948.25
2017-02-21T02:58:20.532Z,948.31
2017-02-21T02:59:20.522Z,948.28
2017-02-21T03:00:20.508Z,948.26
2017-02-21T03:01:20.495Z,948.32
2017-02-21T03:02:20.486Z,948.24
2017-02-21T03:03:20.472Z,948.22
2017-02-21T03:04:20.461Z,948.25
2017-02-21T03:05:20.447Z,948.28
2017-02-21T03:06:20.434Z,948.27
2017-02-21T03:07:20.421Z,948.17
2017-02-21T03:08:20.410Z,948.3
2017-02-21T03:09:20.396Z,948.21
2017-02-21T03:10:20.386Z,948.23
2017-02-21T03:11:20.374Z,948.32
2017-02-21T03:12:20.359Z,948.24
2017-02-21T03:13:20.347Z,948.23
2017-02-21T03:14:20.336Z,948.22
2017-02-21T03:15:20.324Z,948.31
2017-02-21T03:16:20.311Z,948.2
2017-02-21T03:17:20.300Z,948.24
2017-02-21T03:18:20.285Z,948.25
2017-02-21T03:19:20.273Z,948.2
2017-02-21T03:20:20.262Z,948.1
2017-02-21T03:21:20.248Z,948.17
2017-02-21T03:22:20.236Z,948.16
2017-02-21T03:23:20.226Z,948.16
2017-02-21T03:24:20.214Z,948.21
2017-02-21T03:25:20.202Z,948.18
2017-02-21T03:26:20.189Z,948.14
2017-02-21T03:27:20.177Z,948.2
2017-02-21T03:28:20.167Z,948.19
2017-02-21T03:29:20.152Z,948.15
2017-02-21T03:30:20.139Z,948.13
2017-02-21T03:31:20.126Z,948.19
2017-02-21T03:32:20.116Z,948.12
2017-02-21T03:33:20.102Z,948.14
2017-02-21T03:34:20.090Z,948.09
2017-02-21T03:35:20.080Z,948.12
2017-02-21T03:36:20.064Z,948.13
2017-02-21T03:37:20.054Z,948.1
2017-02-21T03:38:20.041Z,948.06
2017-02-21T03:39:20.030Z,948.03
2017-02-21T03:40:20.016Z,948.01
2017-02-21T03:41:20.005Z,948
2017-02-21T03:42:19.993Z,947.98
2017-02-21T03:43:19.980Z,947.99
2017-02-21T03:44:19.968Z,948
2017-02-21T03:45:19.957Z,947.98
2017-02-21T03:46:19.943Z,948.03
2017-02-21T03:47:19.930Z,948.03
2017-02-21T03:48:19.920Z,948.06
2017-02-21T03:49:19.907Z,948.07
2017-02-21T03:50:19.897Z,948.06
2017-02-21T03:51:19.882Z,948.07
2017-02-21T03:52:19.967Z,948.1
2017-02-21T03:53:19.858Z,948.1
2017-02-21T03:54:19.844Z,948.06
2017-02-21T03:55:19.832Z,948.07
2017-02-21T03:56:19.820Z,948.02
2017-02-21T03:57:19.808Z,947.99
2017-02-21T03:58:19.797Z,948.05
2017-02-21T03:59:19.784Z,947.98
2017-02-21T04:00:19.772Z,947.98
2017-02-21T04:01:19.759Z,947.98
2017-02-21T04:02:19.749Z,947.96
2017-02-21T04:03:19.734Z,947.93
2017-02-21T04:04:19.723Z,947.94
2017-02-21T04:05:19.710Z,947.96
2017-02-21T04:06:19.698Z,947.97
2017-02-21T04:07:19.687Z,947.93
2017-02-21T04:08:19.674Z,947.94
2017-02-21T04:09:19.661Z,947.92
2017-02-21T04:10:19.650Z,947.93
2017-02-21T04:11:19.636Z,947.96
2017-02-21T04:12:19.625Z,947.95
2017-02-21T04:13:19.614Z,947.97
2017-02-21T04:14:19.600Z,947.95
2017-02-21T04:15:19.589Z,947.95
2017-02-21T04:16:19.575Z,947.97
2017-02-21T04:17:19.564Z,947.98
2017-02-21T04:18:19.552Z,947.9
2017-02-21T04:19:19.539Z,947.84
2017-02-21T04:20:19.527Z,947.89
2017-02-21T04:21:19.515Z,947.88
2017-02-21T04:22:19.502Z,947.86
2017-02-21T04:23:19.492Z,947.86
2017-02-21T04:24:19.477Z,947.85
2017-02-21T04:25:19.466Z,947.89
2017-02-21T04:26:19.454Z,947.82
2017-02-21T04:27:19.440Z,947.76
2017-02-21T04:28:19.429Z,947.84
2017-02-21T04:29:19.416Z,947.77
2017-02-21T04:30:19.407Z,947.82
2017-02-21T04:31:19.391Z,947.79
2017-02-21T04:32:19.380Z,947.77
2017-02-21T04:33:19.367Z,947.77
2017-02-21T04:34:19.355Z,947.74
2017-02-21T04:35:19.342Z,947.74
2017-02-21T04:36:19.331Z,947.8
2017-02-21T04:37:19.317Z,947.82
2017-02-21T04:38:19.304Z,947.83
2017-02-21T04:39:19.294Z,947.87
2017-02-21T04:40:19.285Z,947.86
2017-02-21T04:41:19.267Z,947.83
2017-02-21T04:42:19.256Z,947.86
2017-02-21T04:43:19.244Z,947.82
2017-02-21T04:44:19.230Z,947.83
2017-02-21T04:45:19.225Z,947.78
2017-02-21T04:46:19.212Z,947.8
2017-02-21T04:47:19.193Z,947.89
2017-02-21T04:48:19.183Z,947.83
2017-02-21T04:49:19.169Z,947.77
2017-02-21T04:50:19.156Z,947.8
2017-02-21T04:51:19.145Z,947.75
2017-02-21T04:52:19.133Z,947.75
2017-02-21T04:53:19.123Z,947.82
2017-02-21T04:54:19.111Z,947.78
2017-02-21T04:55:19.101Z,947.75
2017-02-21T04:56:19.087Z,947.77
2017-02-21T04:57:19.073Z,947.81
2017-02-21T04:58:19.063Z,947.83
2017-02-21T04:59:19.044Z,947.82
2017-02-21T05:00:19.034Z,947.77
2017-02-21T05:01:19.020Z,947.81
2017-02-21T05:02:19.013Z,947.79
2017-02-21T05:03:19.001Z,947.8
2017-02-21T05:04:18.988Z,947.81
2017-02-21T05:05:18.974Z,947.82
2017-02-21T05:06:18.958Z,947.83
2017-02-21T05:07:18.946Z,947.65
2017-02-21T05:08:18.933Z,947.76
2017-02-21T05:09:18.921Z,947.83
2017-02-21T05:10:18.910Z,947.85
2017-02-21T05:11:18.896Z,947.79
2017-02-21T05:12:18.883Z,947.74
2017-02-21T05:13:18.872Z,947.75
2017-02-21T05:14:18.859Z,947.67
2017-02-21T05:15:18.847Z,947.77
2017-02-21T05:16:18.834Z,947.83
2017-02-21T05:17:18.823Z,947.83
2017-02-21T05:18:18.808Z,947.83
2017-02-21T05:19:18.800Z,947.73
2017-02-21T05:20:18.785Z,947.8
2017-02-21T05:21:18.774Z,947.77
2017-02-21T05:22:18.760Z,947.83
2017-02-21T05:23:18.748Z,947.75
2017-02-21T05:24:18.735Z,947.78
2017-02-21T05:25:18.727Z,947.72
2017-02-21T05:26:18.710Z,947.75
2017-02-21T05:27:18.699Z,947.82
2017-02-21T05:28:18.686Z,947.79
2017-02-21T05:29:18.673Z,947.72
2017-02-21T05:30:18.660Z,947.75
2017-02-21T05:31:18.650Z,947.77
2017-02-21T05:32:18.638Z,947.73
2017-02-21T05:33:18.625Z,947.73
2017-02-21T05:34:18.612Z,947.7
2017-02-21T05:35:18.601Z,947.77
2017-02-21T05:36:18.588Z,947.78
2017-02-21T05:37:18.575Z,947.76
2017-02-21T05:38:18.564Z,947.78
2017-02-21T05:39:18.551Z,947.75
2017-02-21T05:40:18.538Z,947.71
2017-02-21T05:41:18.527Z,947.76
2017-02-21T05:42:18.515Z,947.74
2017-02-21T05:43:18.502Z,947.75
2017-02-21T05:44:18.488Z,947.8
2017-02-21T05:45:18.476Z,947.8
2017-02-21T05:46:18.465Z,947.77
2017-02-21T05:47:18.454Z,947.75
2017-02-21T05:48:18.439Z,947.71
2017-02-21T05:49:18.428Z,947.78
2017-02-21T05:50:18.417Z,947.78
2017-02-21T05:51:18.402Z,947.8
2017-02-21T05:52:18.392Z,947.84
2017-02-21T05:53:18.381Z,947.85
2017-02-21T05:54:18.366Z,947.86
2017-02-21T05:55:18.355Z,947.88
2017-02-21T05:56:18.342Z,947.83
2017-02-21T05:57:18.330Z,947.82
2017-02-21T05:58:18.318Z,947.77
2017-02-21T05:59:18.306Z,947.92
2017-02-21T06:00:18.293Z,947.71
2017-02-21T06:01:18.281Z,947.8
2017-02-21T06:02:18.269Z,947.82
2017-02-21T06:03:18.257Z,947.89
2017-02-21T06:04:18.244Z,947.81
2017-02-21T06:05:18.234Z,947.84
2017-02-21T06:06:18.219Z,947.87
2017-02-21T06:07:18.208Z,947.94
2017-02-21T06:08:18.195Z,947.91
2017-02-21T06:09:18.184Z,947.93
2017-02-21T06:10:18.172Z,947.9
2017-02-21T06:11:18.158Z,947.95
2017-02-21T06:12:18.146Z,948
2017-02-21T06:13:18.134Z,948.03
2017-02-21T06:14:18.121Z,948.02
2017-02-21T06:15:18.109Z,947.97
2017-02-21T06:16:18.097Z,948.03
2017-02-21T06:17:18.086Z,948.07
2017-02-21T06:18:18.074Z,948.13
2017-02-21T06:19:18.061Z,948
2017-02-21T06:20:18.050Z,948.09
2017-02-21T06:21:18.037Z,948.02
2017-02-21T06:22:18.024Z,948.08
2017-02-21T06:23:18.017Z,948.05
2017-02-21T06:24:17.999Z,948.04
2017-02-21T06:25:17.987Z,948.04
2017-02-21T06:26:17.977Z,948.05
2017-02-21T06:27:17.965Z,948.11
2017-02-21T06:28:17.951Z,948.09
2017-02-21T06:29:17.939Z,948.12
2017-02-21T06:30:17.927Z,948.06
2017-02-21T06:31:17.916Z,948.14
2017-02-21T06:32:17.902Z,948.14
2017-02-21T06:33:17.890Z,948.15
2017-02-21T06:34:17.878Z,948.18
2017-02-21T06:35:17.866Z,948.11
2017-02-21T06:36:17.855Z,948.06
2017-02-21T06:37:17.842Z,948.07
2017-02-21T06:38:17.831Z,948.08
2017-02-21T06:39:17.817Z,948.1
2017-02-21T06:40:17.805Z,948.11
2017-02-21T06:41:17.794Z,948.09
2017-02-21T06:42:17.781Z,948.1
2017-02-21T06:43:17.769Z,948.15
2017-02-21T06:44:17.758Z,948.09
2017-02-21T06:45:17.747Z,948.08
2017-02-21T06:46:17.735Z,948.09
2017-02-21T06:47:17.722Z,948.13
2017-02-21T06:48:17.710Z,948.11
2017-02-21T06:49:17.702Z,948.09
2017-02-21T06:50:17.685Z,948.12
2017-02-21T06:51:17.674Z,948.12
2017-02-21T06:52:17.661Z,948.1
2017-02-21T06:53:17.649Z,948.12
2017-02-21T06:54:17.636Z,948.04
2017-02-21T06:55:17.626Z,948
2017-02-21T06:56:17.615Z,948.08
2017-02-21T06:57:17.601Z,948.13
2017-02-21T06:58:17.589Z,948.04
2017-02-21T06:59:17.578Z,948.05
2017-02-21T07:00:17.566Z,948.07
2017-02-21T07:01:17.552Z,948.11
2017-02-21T07:02:17.541Z,948.07
2017-02-21T07:03:17.529Z,948.08
2017-02-21T07:04:17.517Z,948.05
2017-02-21T07:05:17.505Z,948.12
2017-02-21T07:06:17.496Z,948.1
2017-02-21T07:07:17.481Z,948.14
2017-02-21T07:08:17.469Z,948.1
2017-02-21T07:09:17.458Z,948.1
2017-02-21T07:10:17.445Z,948.16
2017-02-21T07:11:17.433Z,948.16
2017-02-21T07:12:17.422Z,948.17
2017-02-21T07:13:17.409Z,948.18
2017-02-21T07:14:17.397Z,948.13
2017-02-21T07:15:17.386Z,948.11
2017-02-21T07:16:17.373Z,948.16
2017-02-21T07:17:17.361Z,948.12
2017-02-21T07:18:17.350Z,948.13
2017-02-21T07:19:17.337Z,948.09
2017-02-21T07:20:17.362Z,948.04
2017-02-21T07:21:17.315Z,948.09
2017-02-21T07:22:17.303Z,948.07
2017-02-21T07:23:17.291Z,948.08
2017-02-21T07:24:17.278Z,948.05
2017-02-21T07:25:17.267Z,948.04
2017-02-21T07:26:17.254Z,948.09
2017-02-21T07:27:17.242Z,948.11
2017-02-21T07:28:17.231Z,948.08
2017-02-21T07:29:17.221Z,948.05
2017-02-21T07:30:17.208Z,948.05
2017-02-21T07:31:17.196Z,948.02
2017-02-21T07:32:17.184Z,948.02
2017-02-21T07:33:17.172Z,948.06
2017-02-21T07:34:17.161Z,948.05
2017-02-21T07:35:17.149Z,948.06
2017-02-21T07:36:17.137Z,948.12
2017-02-21T07:37:17.124Z,948.04
2017-02-21T07:38:17.114Z,948.1
2017-02-21T07:39:17.101Z,948.12
2017-02-21T07:40:17.090Z,948
2017-02-21T07:41:17.078Z,948.15
2017-02-21T07:42:17.066Z,948.1
2017-02-21T07:43:17.054Z,948.09
2017-02-21T07:44:17.043Z,948.07
2017-02-21T07:45:17.031Z,947.96
2017-02-21T07:46:17.019Z,948.01
2017-02-21T07:47:17.008Z,947.95
2017-02-21T07:48:16.996Z,947.92
2017-02-21T07:49:16.984Z,947.95
2017-02-21T07:50:16.974Z,947.88
2017-02-21T07:51:16.963Z,947.84
2017-02-21T07:52:16.949Z,947.87
2017-02-21T07:53:16.937Z,947.9
2017-02-21T07:54:16.926Z,947.98
2017-02-21T07:55:16.914Z,947.91
2017-02-21T07:56:16.903Z,947.98
2017-02-21T07:57:17.042Z,947.94
2017-02-21T07:58:16.880Z,947.97
2017-02-21T07:59:16.868Z,947.88
2017-02-21T08:00:16.858Z,947.8
2017-02-21T08:01:16.847Z,947.86
2017-02-21T08:02:16.834Z,947.87
2017-02-21T08:03:16.822Z,947.79
2017-02-21T08:04:16.810Z,947.84
2017-02-21T08:05:16.799Z,947.86
2017-02-21T08:06:16.789Z,947.9
2017-02-21T08:07:16.776Z,947.83
2017-02-21T08:08:16.766Z,947.85
2017-02-21T08:09:16.755Z,947.9
2017-02-21T08:10:16.743Z,947.92
2017-02-21T08:11:16.732Z,947.9
2017-02-21T08:12:16.719Z,947.86
2017-02-21T08:13:16.709Z,947.78
2017-02-21T08:14:16.697Z,947.83
2017-02-21T08:15:16.685Z,947.83
2017-02-21T08:16:16.676Z,947.85
2017-02-21T08:17:16.664Z,947.83
2017-02-21T08:18:16.653Z,947.89
2017-02-21T08:19:16.643Z,947.91
2017-02-21T08:20:16.630Z,947.85
2017-02-21T08:21:16.618Z,947.83
2017-02-21T08:22:16.608Z,947.84
2017-02-21T08:23:16.597Z,947.81
2017-02-21T08:24:16.586Z,947.8
2017-02-21T08:25:16.575Z,947.75
2017-02-21T08:26:16.564Z,947.81
2017-02-21T08:27:16.552Z,947.84
2017-02-21T08:28:16.541Z,947.87
2017-02-21T08:29:16.531Z,947.83
2017-02-21T08:30:16.518Z,947.84
2017-02-21T08:31:16.508Z,947.87
2017-02-21T08:32:16.497Z,947.92
2017-02-21T08:33:16.485Z,947.91
2017-02-21T08:34:16.475Z,947.93
2017-02-21T08:35:16.464Z,947.92
2017-02-21T08:36:16.453Z,947.9
2017-02-21T08:37:16.443Z,947.86
2017-02-21T08:38:16.461Z,947.93
2017-02-21T08:39:16.421Z,947.91
2017-02-21T08:40:16.409Z,947.97
2017-02-21T08:41:16.399Z,947.98
2017-02-21T08:42:16.389Z,947.98
2017-02-21T08:43:16.377Z,947.97
2017-02-21T08:44:16.365Z,948.01
2017-02-21T08:45:16.356Z,948.01
2017-02-21T08:46:16.346Z,948.01
2017-02-21T08:47:16.333Z,948.01
2017-02-21T08:48:16.324Z,948.02
2017-02-21T08:49:16.313Z,948.04
2017-02-21T08:50:16.301Z,948.08
2017-02-21T08:51:16.290Z,948.05
2017-02-21T08:52:16.280Z,948.14
2017-02-21T08:53:16.270Z,948.12
2017-02-21T08:54:16.257Z,948.14
2017-02-21T08:55:16.247Z,948.15
2017-02-21T08:56:16.237Z,948.16
2017-02-21T08:57:16.226Z,948.17
2017-02-21T08:58:16.214Z,948.19
2017-02-21T08:59:16.203Z,948.17
2017-02-21T09:00:16.194Z,948.29
2017-02-21T09:01:16.180Z,948.17
2017-02-21T09:02:16.170Z,948.14
2017-02-21T09:03:16.160Z,948.21
2017-02-21T09:04:16.149Z,948.17
2017-02-21T09:05:16.138Z,948.17
2017-02-21T09:06:16.127Z,948.14
2017-02-21T09:07:16.117Z,948.2
2017-02-21T09:08:16.106Z,948.18
2017-02-21T09:09:16.096Z,948.25
2017-02-21T09:10:16.085Z,948.18
2017-02-21T09:11:16.074Z,948.26
2017-02-21T09:12:16.065Z,948.29
2017-02-21T09:13:16.051Z,948.27
2017-02-21T09:14:16.043Z,948.32
2017-02-21T09:15:16.031Z,948.3
2017-02-21T09:16:16.022Z,948.35
2017-02-21T09:17:16.010Z,948.33
2017-02-21T09:18:16.001Z,948.35
2017-02-21T09:19:15.990Z,948.41
2017-02-21T09:20:15.978Z,948.36
2017-02-21T09:21:15.967Z,948.35
2017-02-21T09:22:15.958Z,948.41
2017-02-21T09:23:15.945Z,948.45
2017-02-21T09:24:15.935Z,948.44
2017-02-21T09:25:15.925Z,948.47
2017-02-21T09:26:15.914Z,948.56
2017-02-21T09:27:15.903Z,948.55
2017-02-21T09:28:15.895Z,948.58
2017-02-21T09:29:15.882Z,948.54
2017-02-21T09:30:15.872Z,948.57
2017-02-21T09:31:15.860Z,948.61
2017-02-21T09:32:15.849Z,948.65
2017-02-21T09:33:15.840Z,948.65
2017-02-21T09:34:15.827Z,948.65
2017-02-21T09:35:15.815Z,948.63
2017-02-21T09:36:15.806Z,948.68
2017-02-21T09:37:15.796Z,948.64
2017-02-21T09:38:15.784Z,948.68
2017-02-21T09:39:15.774Z,948.68
2017-02-21T09:40:15.763Z,948.67
2017-02-21T09:41:15.752Z,948.69
2017-02-21T09:42:15.742Z,948.69
2017-02-21T09:43:15.731Z,948.6
2017-02-21T09:44:15.720Z,948.67
2017-02-21T09:45:15.710Z,948.66
2017-02-21T09:46:15.703Z,948.64
2017-02-21T09:47:15.689Z,948.62
2017-02-21T09:48:15.678Z,948.65
2017-02-21T09:49:15.667Z,948.68
2017-02-21T09:50:15.655Z,948.7
2017-02-21T09:51:15.646Z,948.69
2017-02-21T09:52:15.636Z,948.72
2017-02-21T09:53:15.625Z,948.71
2017-02-21T09:54:15.615Z,948.74
2017-02-21T09:55:15.605Z,948.76
2017-02-21T09:56:15.593Z,948.78
2017-02-21T09:57:15.581Z,948.8
2017-02-21T09:58:15.573Z,948.89
2017-02-21T09:59:15.561Z,948.8
2017-02-21T10:00:15.550Z,948.83
2017-02-21T10:01:15.540Z,948.86
2017-02-21T10:02:15.529Z,948.91
2017-02-21T10:03:15.518Z,948.89
2017-02-21T10:04:15.507Z,949
2017-02-21T10:05:15.497Z,948.99
2017-02-21T10:06:15.486Z,949
2017-02-21T10:07:15.475Z,949.03
2017-02-21T10:08:15.465Z,949.07
2017-02-21T10:09:15.454Z,949.11
2017-02-21T10:10:15.444Z,949.02
2017-02-21T10:11:15.433Z,949.1
2017-02-21T10:12:15.423Z,949.05
2017-02-21T10:13:15.412Z,949.05
2017-02-21T10:14:15.401Z,949.1
2017-02-21T10:15:15.391Z,949.17
2017-02-21T10:16:15.382Z,949.07
2017-02-21T10:17:15.372Z,949.13
2017-02-21T10:18:15.360Z,949.13
2017-02-21T10:19:15.349Z,949.15
2017-02-21T10:20:15.341Z,949.15
2017-02-21T10:21:15.330Z,949.16
2017-02-21T10:22:15.319Z,949.16
2017-02-21T10:23:15.309Z,949.18
2017-02-21T10:24:15.301Z,949.21
2017-02-21T10:25:15.289Z,949.19
2017-02-21T10:26:15.281Z,949.15
2017-02-21T10:27:15.270Z,949.22
2017-02-21T10:28:15.260Z,949.22
2017-02-21T10:29:15.250Z,949.29
2017-02-21T10:30:15.240Z,949.32
2017-02-21T10:31:15.230Z,949.26
2017-02-21T10:32:15.220Z,949.28
2017-02-21T10:33:15.209Z,949.26
2017-02-21T10:34:15.200Z,949.27
2017-02-21T10:35:15.193Z,949.32
2017-02-21T10:36:15.181Z,949.34
2017-02-21T10:37:15.171Z,949.32
2017-02-21T10:38:15.162Z,949.32
2017-02-21T10:39:15.152Z,949.27
2017-02-21T10:40:15.141Z,949.35
2017-02-21T10:41:15.133Z,949.29
2017-02-21T10:42:15.125Z,949.34
2017-02-21T10:43:15.112Z,949.36
2017-02-21T10:44:15.101Z,949.42
2017-02-21T10:45:15.091Z,949.38
2017-02-21T10:46:15.081Z,949.39
2017-02-21T10:47:15.071Z,949.35
2017-02-21T10:48:15.060Z,949.38
2017-02-21T10:49:15.051Z,949.44
2017-02-21T10:50:15.042Z,949.44
2017-02-21T10:51:15.029Z,949.44
2017-02-21T10:52:15.019Z,949.51
2017-02-21T10:53:15.009Z,949.49
2017-02-21T10:54:14.999Z,949.53
2017-02-21T10:55:14.987Z,949.55
2017-02-21T10:56:14.978Z,949.58
2017-02-21T10:57:14.968Z,949.56
2017-02-21T10:58:14.957Z,949.63
2017-02-21T10:59:14.945Z,949.62
2017-02-21T11:00:14.936Z,949.68
2017-02-21T11:01:14.926Z,949.65
2017-02-21T11:02:14.915Z,949.64
2017-02-21T11:03:14.903Z,949.68
2017-02-21T11:04:14.893Z,949.71
2017-02-21T11:05:14.882Z,949.67
2017-02-21T11:06:14.872Z,949.68
2017-02-21T11:07:14.859Z,949.68
2017-02-21T11:08:14.850Z,949.68
2017-02-21T11:09:14.838Z,949.68
2017-02-21T11:10:14.828Z,949.73
2017-02-21T11:11:14.818Z,949.72
2017-02-21T11:12:14.808Z,949.75
2017-02-21T11:13:14.796Z,949.7
2017-02-21T11:14:14.786Z,949.71
2017-02-21T11:15:14.776Z,949.72
2017-02-21T11:16:14.767Z,949.72
2017-02-21T11:17:14.754Z,949.67
2017-02-21T11:18:14.743Z,949.64
2017-02-21T11:19:14.732Z,949.66
2017-02-21T11:20:14.721Z,949.7
2017-02-21T11:21:14.711Z,949.67
2017-02-21T11:22:14.702Z,949.72
2017-02-21T11:23:14.691Z,949.69
2017-02-21T11:24:14.680Z,949.75
2017-02-21T11:25:14.672Z,949.73
2017-02-21T11:26:14.659Z,949.74
2017-02-21T11:27:14.649Z,949.69
2017-02-21T11:28:14.639Z,949.75
2017-02-21T11:29:14.645Z,949.77
2017-02-21T11:30:14.620Z,949.76
2017-02-21T11:31:14.608Z,949.8
2017-02-21T11:32:14.598Z,949.7
2017-02-21T11:33:14.586Z,949.68
2017-02-21T11:34:14.579Z,949.69
2017-02-21T11:35:14.567Z,949.75
2017-02-21T11:36:14.557Z,949.73
2017-02-21T11:37:14.547Z,949.72
2017-02-21T11:38:14.536Z,949.78
2017-02-21T11:39:14.526Z,949.79
2017-02-21T11:40:14.516Z,949.83
2017-02-21T11:41:14.507Z,949.76
2017-02-21T11:42:14.494Z,949.81
2017-02-21T11:43:14.485Z,949.83
2017-02-21T11:44:14.475Z,949.75
2017-02-21T11:45:14.465Z,949.94
2017-02-21T11:46:14.454Z,949.84
2017-02-21T11:47:14.444Z,949.81
2017-02-21T11:48:14.433Z,949.84
2017-02-21T11:49:14.421Z,949.87
2017-02-21T11:50:14.411Z,949.82
2017-02-21T11:51:14.400Z,949.89
2017-02-21T11:52:14.391Z,949.83
2017-02-21T11:53:14.379Z,949.88
2017-02-21T11:54:14.369Z,949.9
2017-02-21T11:55:14.360Z,949.9
2017-02-21T11:56:14.348Z,949.91
2017-02-21T11:57:14.339Z,949.89
2017-02-21T11:58:14.330Z,949.91
2017-02-21T11:59:14.317Z,949.89
2017-02-21T12:00:14.307Z,949.85
2017-02-21T12:01:14.296Z,949.84
2017-02-21T12:02:14.287Z,949.87
2017-02-21T12:03:14.276Z,949.89
2017-02-21T12:04:14.266Z,949.93
2017-02-21T12:05:14.255Z,949.89
2017-02-21T12:06:14.245Z,949.91
2017-02-21T12:07:14.237Z,949.91
2017-02-21T12:08:14.223Z,949.86
2017-02-21T12:09:14.214Z,949.86
2017-02-21T12:10:14.204Z,949.87
2017-02-21T12:11:14.192Z,949.89
2017-02-21T12:12:14.184Z,949.92
2017-02-21T12:13:14.172Z,949.93
2017-02-21T12:14:14.163Z,949.96
2017-02-21T12:15:14.152Z,949.97
2017-02-21T12:16:14.143Z,949.94
2017-02-21T12:17:14.133Z,949.93
2017-02-21T12:18:14.123Z,949.95
2017-02-21T12:19:14.112Z,949.9
2017-02-21T12:20:14.102Z,949.91
2017-02-21T12:21:14.090Z,949.93
2017-02-21T12:22:14.080Z,949.93
2017-02-21T12:23:14.069Z,949.91
2017-02-21T12:24:14.060Z,949.87
2017-02-21T12:25:14.048Z,949.87
2017-02-21T12:26:14.037Z,949.87
2017-02-21T12:27:14.028Z,949.88
2017-02-21T12:28:14.016Z,949.9
2017-02-21T12:29:14.008Z,949.96
2017-02-21T12:30:13.997Z,949.9
2017-02-21T12:31:13.986Z,949.93